createdAt,value
2023-03-05T09:43:49.908Z,6.03
2023-03-05T09:46:04.909Z,7.47
2023-03-05T09:48:24.582Z,6.78
2023-03-05T09:50:50.614Z,7.55
2023-03-05T09:52:57.919Z,6.80
2023-03-05T09:55:01.249Z,7.28
2023-03-05T09:57:05.584Z,7.32
2023-03-05T09:59:20.520Z,7.45
2023-03-05T10:01:30.646Z,7.70
2023-03-05T10:03:50.093Z,6.95
2023-03-05T10:06:02.117Z,7.65
2023-03-05T10:08:06.067Z,6.85
2023-03-05T10:10:22.526Z,7.15
2023-03-05T10:12:39.085Z,6.43
2023-03-05T10:14:42.247Z,7.25
2023-03-05T10:16:57.326Z,8.43
2023-03-05T10:19:08.497Z,7.68
2023-03-05T10:23:42.903Z,6.82
2023-03-05T10:26:17.319Z,7.68
2023-03-05T10:28:34.820Z,7.47
2023-03-05T10:30:59.351Z,7.62
2023-03-05T10:33:27.581Z,8.05
2023-03-05T10:35:54.979Z,7.22
2023-03-05T10:38:00.852Z,7.50
2023-03-05T10:40:22.506Z,6.80
2023-03-05T10:42:37.888Z,7.05
2023-03-05T10:44:52.899Z,6.12
2023-03-05T10:46:58.244Z,6.30
2023-03-05T10:49:12.560Z,5.12
2023-03-05T10:51:29.096Z,7.82
2023-03-05T10:53:46.411Z,6.62
2023-03-05T10:55:50.724Z,5.95
2023-03-05T10:57:53.995Z,6.30
2023-03-05T11:00:05.707Z,6.40
2023-03-05T11:02:10.324Z,8.07
2023-03-05T11:04:29.831Z,6.10
2023-03-05T11:06:46.973Z,6.75
2023-03-05T11:08:50.622Z,6.50
2023-03-05T11:11:18.414Z,6.62
2023-03-05T11:13:27.950Z,6.10
2023-03-05T11:15:31.083Z,6.28
2023-03-05T11:17:37.530Z,6.78
2023-03-05T11:19:40.014Z,7.15
2023-03-05T11:21:43.858Z,6.75
2023-03-05T11:24:08.862Z,6.30
2023-03-05T11:26:14.240Z,6.40
2023-03-05T11:28:32.071Z,6.20
2023-03-05T11:30:37.493Z,6.97
2023-03-05T11:32:40.188Z,6.30
2023-03-05T11:34:43.908Z,6.18
2023-03-05T11:36:58.379Z,6.45
2023-03-05T11:39:16.624Z,6.97
2023-03-05T11:41:25.474Z,6.43
2023-03-05T11:43:34.588Z,6.18
2023-03-05T11:45:37.206Z,6.43
2023-03-05T11:47:44.856Z,6.70
2023-03-05T11:49:53.077Z,6.62
2023-03-05T11:52:02.338Z,6.55
2023-03-05T11:54:12.896Z,6.37
2023-03-05T11:56:27.700Z,6.32
2023-03-05T11:58:41.910Z,6.47
2023-03-05T12:00:46.578Z,6.40
2023-03-05T12:02:54.990Z,7.25
2023-03-05T12:04:59.756Z,7.50
2023-03-05T12:07:03.540Z,7.40
2023-03-05T12:09:51.885Z,7.20
2023-03-05T12:12:10.610Z,6.68
2023-03-05T12:14:23.459Z,5.80
2023-03-05T12:16:31.788Z,6.72
2023-03-05T12:18:39.312Z,6.15
2023-03-05T12:21:01.096Z,6.50
2023-03-05T12:23:04.705Z,6.00
2023-03-05T12:25:34.446Z,6.15
2023-03-05T12:27:39.361Z,6.83
2023-03-05T12:29:47.108Z,5.75
2023-03-05T12:31:50.002Z,5.37
2023-03-05T12:33:52.975Z,4.40
2023-03-05T12:36:33.054Z,5.70
2023-03-05T12:38:35.535Z,4.37
2023-03-05T12:40:38.322Z,5.00
2023-03-05T12:43:08.766Z,5.30
2023-03-05T12:45:19.706Z,5.37
2023-03-05T12:47:23.995Z,5.25
2023-03-05T12:49:28.731Z,5.15
2023-03-05T12:51:41.260Z,4.37
2023-03-05T12:53:44.138Z,6.85
2023-03-05T12:55:59.285Z,5.47
2023-03-05T12:58:26.173Z,7.15
2023-03-05T13:00:44.687Z,4.40
2023-03-05T13:02:56.286Z,4.72
2023-03-05T13:05:15.228Z,4.37
2023-03-05T13:07:19.505Z,4.15
2023-03-05T13:09:28.929Z,5.43
2023-03-05T13:11:35.379Z,4.72
2023-03-05T13:13:44.605Z,4.45
2023-03-05T13:15:49.322Z,4.55
2023-03-05T13:18:07.589Z,4.55
2023-03-05T13:20:28.613Z,5.28
2023-03-05T13:22:32.683Z,4.32
2023-03-05T13:24:36.012Z,4.47
2023-03-05T13:26:45.956Z,4.57
2023-03-05T13:29:14.946Z,4.90
2023-03-05T13:31:21.757Z,4.47
2023-03-05T13:33:32.064Z,5.03
2023-03-05T13:35:44.609Z,4.20
2023-03-05T13:37:50.820Z,5.40
2023-03-05T13:40:07.706Z,4.53
2023-03-05T13:42:20.752Z,4.78
2023-03-05T13:44:24.385Z,5.00
2023-03-05T13:46:39.444Z,4.30
2023-03-05T13:48:42.658Z,6.15
2023-03-05T13:50:46.405Z,5.45
2023-03-05T13:52:50.647Z,4.85
2023-03-05T13:54:53.688Z,6.12
2023-03-05T13:57:02.989Z,20.08
2023-03-05T13:59:17.925Z,7.85
2023-03-05T14:01:28.863Z,8.57
2023-03-05T14:03:34.923Z,4.57
2023-03-05T14:05:44.558Z,9.00
2023-03-05T14:07:51.678Z,5.80
2023-03-05T14:09:56.780Z,5.28
2023-03-05T14:12:08.345Z,5.10
2023-03-05T14:14:19.277Z,4.90
2023-03-05T14:16:29.533Z,4.37
2023-03-05T14:18:33.148Z,4.35
2023-03-05T14:20:36.727Z,3.95
2023-03-05T14:22:45.346Z,5.22
2023-03-05T14:24:54.176Z,5.03
2023-03-05T14:27:21.856Z,5.10
2023-03-05T14:29:27.725Z,7.00
2023-03-05T14:31:35.832Z,5.18
2023-03-05T14:33:41.850Z,6.85
2023-03-05T14:35:53.220Z,5.05
2023-03-05T14:37:58.686Z,4.93
2023-03-05T14:40:07.185Z,4.68
2023-03-05T14:42:38.773Z,5.47
2023-03-05T14:44:44.009Z,4.78
2023-03-05T14:46:50.992Z,10.63
2023-03-05T14:48:54.913Z,4.22
2023-03-05T14:51:01.777Z,5.68
2023-03-05T14:53:26.974Z,6.72
2023-03-05T14:55:33.077Z,10.32
2023-03-05T14:57:36.861Z,7.62
2023-03-05T14:59:40.337Z,5.10
2023-03-05T15:01:44.756Z,5.20
2023-03-05T15:03:48.288Z,4.28
2023-03-05T15:05:59.604Z,5.22
2023-03-05T15:08:04.626Z,5.45
2023-03-05T15:10:09.278Z,4.30
2023-03-05T15:12:15.364Z,4.50
2023-03-05T15:14:20.604Z,4.72
2023-03-05T15:16:24.497Z,4.70
2023-03-05T15:18:28.481Z,4.53
2023-03-05T15:20:45.305Z,4.65
2023-03-05T15:22:48.972Z,4.15
2023-03-05T15:24:52.764Z,4.50
2023-03-05T15:26:57.244Z,7.18
2023-03-05T15:29:01.215Z,7.37
2023-03-05T15:31:07.117Z,5.05
2023-03-05T15:33:14.588Z,4.78
2023-03-05T15:35:18.487Z,4.57
2023-03-05T15:37:21.764Z,4.68
2023-03-05T15:39:26.020Z,9.75
2023-03-05T15:41:29.917Z,4.80
2023-03-05T15:43:33.553Z,4.50
2023-03-05T15:45:37.248Z,5.43
2023-03-05T15:47:40.453Z,4.80
2023-03-05T15:49:44.205Z,4.22
2023-03-05T15:51:49.519Z,5.30
2023-03-05T15:53:54.904Z,4.50
2023-03-05T15:55:58.680Z,4.15
2023-03-05T16:00:08.200Z,3.95
2023-03-05T16:02:14.160Z,4.10
2023-03-05T16:04:18.125Z,3.83
2023-03-05T16:06:26.089Z,3.60
2023-03-05T16:08:30.057Z,3.87
2023-03-05T16:10:37.318Z,4.00
2023-03-05T16:12:45.152Z,4.30
2023-03-05T16:14:51.648Z,4.18
2023-03-05T16:16:58.990Z,4.10
2023-03-05T16:19:06.139Z,4.65
2023-03-05T16:21:10.577Z,4.18
2023-03-05T16:23:15.045Z,3.75
2023-03-05T16:25:19.515Z,4.37
2023-03-05T16:27:26.213Z,4.97
2023-03-05T16:29:33.073Z,4.57
2023-03-05T16:31:39.034Z,4.03
2023-03-05T16:33:43.789Z,3.78
2023-03-05T16:35:48.019Z,2.40
2023-03-05T16:37:52.296Z,3.47
2023-03-05T16:40:00.553Z,3.22
2023-03-05T16:42:05.149Z,3.12
2023-03-05T16:44:09.194Z,3.35
2023-03-05T16:46:14.960Z,2.95
2023-03-05T16:48:20.333Z,3.00
2023-03-05T16:50:25.458Z,2.87
2023-03-05T16:52:30.749Z,2.80
2023-03-05T16:56:41.204Z,2.60
2023-03-05T16:58:46.240Z,2.70
2023-03-05T17:00:50.216Z,2.50
2023-03-05T17:02:54.021Z,2.50
2023-03-05T17:04:59.985Z,2.15
2023-03-05T17:07:06.072Z,1.50
2023-03-05T17:09:09.892Z,2.05
2023-03-05T17:11:15.544Z,2.03
2023-03-05T17:13:20.174Z,2.50
2023-03-05T17:15:24.538Z,2.20
2023-03-05T17:17:28.710Z,1.80
2023-03-05T17:19:32.542Z,1.73
2023-03-05T17:21:36.573Z,2.72
2023-03-05T17:23:43.626Z,2.22
2023-03-05T17:25:47.589Z,2.22
2023-03-05T17:27:52.377Z,2.80
2023-03-05T17:29:56.632Z,1.65
2023-03-05T17:31:59.702Z,1.98
2023-03-05T17:34:03.831Z,2.08
2023-03-05T17:36:14.141Z,2.22
2023-03-05T17:38:18.980Z,2.12
2023-03-05T17:40:24.915Z,3.05
2023-03-05T17:42:28.773Z,2.62
2023-03-05T17:44:32.336Z,2.37
2023-03-05T17:46:38.678Z,2.22
2023-03-05T17:48:42.359Z,2.15
2023-03-05T17:50:48.580Z,2.58
2023-03-05T17:52:55.851Z,2.40
2023-03-05T17:54:59.687Z,2.80
2023-03-05T17:57:04.634Z,2.80
2023-03-05T17:59:08.026Z,3.87
2023-03-05T18:01:12.599Z,2.60
2023-03-05T18:03:16.486Z,2.72
2023-03-05T18:05:25.337Z,3.20
2023-03-05T18:07:29.197Z,2.05
2023-03-05T18:09:33.253Z,4.12
2023-03-05T18:11:39.609Z,2.40
2023-03-05T18:13:43.768Z,4.82
2023-03-05T18:15:49.865Z,3.08
2023-03-05T18:17:53.925Z,2.60
2023-03-05T18:19:57.927Z,2.22
2023-03-05T18:22:11.362Z,2.58
2023-03-05T18:24:15.709Z,2.05
2023-03-05T18:26:19.828Z,2.50
2023-03-05T18:28:27.934Z,3.33
2023-03-05T18:30:35.223Z,2.85
2023-03-05T18:32:38.842Z,2.80
2023-03-05T18:34:43.330Z,3.03
2023-03-05T18:36:46.964Z,2.80
2023-03-05T18:38:51.130Z,2.28
2023-03-05T18:40:57.241Z,2.83
2023-03-05T18:43:02.245Z,2.55
2023-03-05T18:45:06.989Z,2.95
2023-03-05T18:47:12.046Z,2.83
2023-03-05T18:49:17.459Z,2.80
2023-03-05T18:51:22.601Z,3.10
2023-03-05T18:53:27.613Z,2.33
2023-03-05T18:55:32.777Z,3.08
2023-03-05T18:57:40.886Z,2.40
2023-03-05T18:59:45.205Z,2.90
2023-03-05T19:01:50.584Z,2.70
2023-03-05T19:03:54.213Z,3.28
2023-03-05T19:05:59.084Z,2.75
2023-03-05T19:08:03.213Z,2.62
2023-03-05T19:10:11.822Z,2.40
2023-03-05T19:12:15.976Z,2.83
2023-03-05T19:14:20.075Z,2.33
2023-03-05T19:16:28.530Z,2.67
2023-03-05T19:18:43.213Z,2.22
2023-03-05T19:20:56.278Z,2.08
2023-03-05T19:22:59.892Z,2.42
2023-03-05T19:25:07.363Z,2.55
2023-03-05T19:27:11.612Z,2.30
2023-03-05T19:29:15.992Z,2.80
2023-03-05T19:31:20.228Z,2.05
2023-03-05T19:33:25.036Z,2.95
2023-03-05T19:35:28.420Z,2.53
2023-03-05T19:37:33.221Z,2.60
2023-03-05T19:39:36.160Z,2.35
2023-03-05T19:41:39.784Z,2.42
2023-03-05T19:43:44.389Z,2.40
2023-03-05T19:45:48.135Z,2.10
2023-03-05T19:47:51.992Z,2.58
2023-03-05T19:49:59.033Z,2.37
2023-03-05T19:52:03.384Z,2.62
2023-03-05T19:54:07.013Z,2.58
2023-03-05T19:56:11.433Z,2.65
2023-03-05T19:58:15.604Z,2.40
2023-03-05T20:00:22.454Z,2.40
2023-03-05T20:02:25.994Z,2.55
2023-03-05T20:04:29.205Z,2.22
2023-03-05T20:06:37.152Z,2.53
2023-03-05T20:08:41.666Z,2.28
2023-03-05T20:10:50.617Z,2.37
2023-03-05T20:12:55.250Z,2.58
2023-03-05T20:15:02.066Z,2.40
2023-03-05T20:17:05.581Z,2.28
2023-03-05T20:19:10.781Z,2.08
2023-03-05T20:21:22.149Z,2.20
2023-03-05T20:25:31.356Z,2.60
2023-03-05T20:27:35.050Z,2.70
2023-03-05T20:29:39.043Z,2.45
2023-03-05T20:31:44.938Z,3.00
2023-03-05T20:33:50.171Z,2.80
2023-03-05T20:35:54.946Z,2.40
2023-03-05T20:38:20.870Z,3.03
2023-03-05T20:40:25.227Z,2.35
2023-03-05T20:42:29.324Z,2.90
2023-03-05T20:44:32.706Z,3.03
2023-03-05T20:46:43.503Z,2.70
2023-03-05T20:50:52.536Z,3.28
2023-03-05T20:52:58.097Z,3.40
2023-03-05T20:55:04.211Z,3.45
2023-03-05T20:57:08.570Z,2.95
2023-03-05T20:59:15.468Z,3.47
2023-03-05T21:01:21.595Z,4.07
2023-03-05T21:03:25.662Z,4.18
2023-03-05T21:05:31.046Z,4.40
2023-03-05T21:07:34.815Z,5.45
2023-03-05T21:09:38.693Z,4.75
2023-03-05T21:11:43.123Z,4.65
2023-03-05T21:13:46.639Z,4.07
2023-03-05T21:15:50.179Z,4.10
2023-03-05T21:17:55.883Z,4.70
2023-03-05T21:19:59.230Z,3.90
2023-03-05T21:22:02.470Z,4.68
2023-03-05T21:24:06.625Z,3.33
2023-03-05T21:26:10.206Z,4.15
2023-03-05T21:28:17.682Z,3.97
2023-03-05T21:30:22.575Z,4.70
2023-03-05T21:32:25.872Z,4.57
2023-03-05T21:34:29.681Z,4.53
2023-03-05T21:36:33.222Z,4.30
2023-03-05T21:38:41.370Z,4.47
2023-03-05T21:40:45.646Z,3.35
2023-03-05T21:42:48.598Z,4.90
2023-03-05T21:44:51.339Z,3.70
2023-03-05T21:46:54.717Z,4.28
2023-03-05T21:48:57.719Z,4.55
2023-03-05T21:51:00.340Z,4.55
2023-03-05T21:53:03.468Z,3.72
2023-03-05T21:55:07.528Z,4.28
2023-03-05T21:57:11.652Z,3.53
2023-03-05T21:59:14.407Z,4.47
2023-03-05T22:01:19.376Z,3.85
2023-03-05T22:03:22.084Z,4.55
2023-03-05T22:05:24.355Z,4.03
2023-03-05T22:07:27.877Z,3.75
2023-03-05T22:09:30.440Z,4.97
2023-03-05T22:11:32.892Z,3.87
2023-03-05T22:13:36.520Z,4.47
2023-03-05T22:15:49.329Z,4.53
2023-03-05T22:17:51.636Z,4.28
2023-03-05T22:19:53.921Z,4.20
2023-03-05T22:21:57.653Z,6.32
2023-03-05T22:24:00.027Z,5.47
2023-03-05T22:26:07.066Z,4.65
2023-03-05T22:28:12.328Z,4.25
2023-03-05T22:30:14.734Z,4.45
2023-03-05T22:32:17.022Z,3.87
2023-03-05T22:34:19.675Z,4.50
2023-03-05T22:36:22.323Z,4.30
2023-03-05T22:38:25.458Z,4.87
2023-03-05T22:40:28.309Z,4.15
2023-03-05T22:42:30.612Z,4.28
2023-03-05T22:44:32.906Z,5.03
2023-03-05T22:46:35.540Z,4.75
2023-03-05T22:48:37.937Z,4.12
2023-03-05T22:50:41.895Z,4.72
2023-03-05T22:52:44.729Z,4.40
2023-03-05T22:54:47.309Z,4.40
2023-03-05T22:56:49.580Z,4.28
2023-03-05T22:58:52.161Z,4.72
2023-03-05T23:00:54.483Z,4.85
2023-03-05T23:02:56.919Z,4.82
2023-03-05T23:05:00.545Z,5.18
2023-03-05T23:07:02.940Z,5.12
